sensor_id;sensor_type;location;lat;lon;timestamp;temperature;humidity
10344;DHT22;5217;43.960;10.954;2022-10-16T00:01:39;21.10;99.90
10344;DHT22;5217;43.960;10.954;2022-10-16T00:04:08;21.10;99.90
10344;DHT22;5217;43.960;10.954;2022-10-16T00:06:38;21.00;99.90
10344;DHT22;5217;43.960;10.954;2022-10-16T00:09:06;21.10;99.90
10344;DHT22;5217;43.960;10.954;2022-10-16T00:11:37;21.10;99.90
10344;DHT22;5217;43.960;10.954;2022-10-16T00:14:08;21.10;99.90
10344;DHT22;5217;43.960;10.954;2022-10-16T00:16:38;21.10;99.90
10344;DHT22;5217;43.960;10.954;2022-10-16T00:19:07;21.00;99.90
10344;DHT22;5217;43.960;10.954;2022-10-16T00:21:36;21.00;99.90
10344;DHT22;5217;43.960;10.954;2022-10-16T00:24:06;21.10;99.90
10344;DHT22;5217;43.960;10.954;2022-10-16T00:26:37;21.10;99.90
10344;DHT22;5217;43.960;10.954;2022-10-16T00:29:06;21.10;99.90
10344;DHT22;5217;43.960;10.954;2022-10-16T00:31:35;21.10;99.90
10344;DHT22;5217;43.960;10.954;2022-10-16T00:34:04;21.10;99.90
10344;DHT22;5217;43.960;10.954;2022-10-16T00:36:33;21.10;99.90
10344;DHT22;5217;43.960;10.954;2022-10-16T00:39:02;21.10;99.90
10344;DHT22;5217;43.960;10.954;2022-10-16T00:41:31;21.10;99.90
10344;DHT22;5217;43.960;10.954;2022-10-16T00:44:00;21.10;99.90
10344;DHT22;5217;43.960;10.954;2022-10-16T00:46:34;21.10;99.90
10344;DHT22;5217;43.960;10.954;2022-10-16T00:49:07;21.10;99.90
10344;DHT22;5217;43.960;10.954;2022-10-16T00:51:37;21.10;99.90
10344;DHT22;5217;43.960;10.954;2022-10-16T00:54:12;21.10;99.90
10344;DHT22;5217;43.960;10.954;2022-10-16T00:56:41;21.10;99.90
10344;DHT22;5217;43.960;10.954;2022-10-16T00:59:13;21.10;99.90
10344;DHT22;5217;43.960;10.954;2022-10-16T01:01:43;21.10;99.90
10344;DHT22;5217;43.960;10.954;2022-10-16T01:04:13;21.10;99.90
10344;DHT22;5217;43.960;10.954;2022-10-16T01:06:49;21.10;99.90
10344;DHT22;5217;43.960;10.954;2022-10-16T01:09:22;21.10;99.90
10344;DHT22;5217;43.960;10.954;2022-10-16T01:11:59;21.10;99.90
10344;DHT22;5217;43.960;10.954;2022-10-16T01:14:37;21.10;99.90
10344;DHT22;5217;43.960;10.954;2022-10-16T01:17:12;21.10;99.90
10344;DHT22;5217;43.960;10.954;2022-10-16T01:19:58;21.10;99.90
10344;DHT22;5217;43.960;10.954;2022-10-16T01:22:37;21.00;99.90
10344;DHT22;5217;43.960;10.954;2022-10-16T01:25:12;21.10;99.90
10344;DHT22;5217;43.960;10.954;2022-10-16T01:27:46;21.10;99.90
10344;DHT22;5217;43.960;10.954;2022-10-16T01:30:18;21.10;99.90
10344;DHT22;5217;43.960;10.954;2022-10-16T01:32:51;21.00;99.90
10344;DHT22;5217;43.960;10.954;2022-10-16T01:35:23;21.00;99.90
10344;DHT22;5217;43.960;10.954;2022-10-16T01:37:58;21.00;99.90
10344;DHT22;5217;43.960;10.954;2022-10-16T01:40:31;21.00;99.90
10344;DHT22;5217;43.960;10.954;2022-10-16T01:43:05;21.00;99.90
10344;DHT22;5217;43.960;10.954;2022-10-16T01:45:36;21.00;99.90
10344;DHT22;5217;43.960;10.954;2022-10-16T01:48:05;21.00;99.90
10344;DHT22;5217;43.960;10.954;2022-10-16T01:50:39;20.90;99.90
10344;DHT22;5217;43.960;10.954;2022-10-16T01:53:12;20.90;99.90
10344;DHT22;5217;43.960;10.954;2022-10-16T01:55:43;21.00;99.90
10344;DHT22;5217;43.960;10.954;2022-10-16T01:58:14;20.90;99.90
10344;DHT22;5217;43.960;10.954;2022-10-16T02:00:45;21.00;99.90
10344;DHT22;5217;43.960;10.954;2022-10-16T02:03:16;20.90;99.90
10344;DHT22;5217;43.960;10.954;2022-10-16T02:05:47;20.90;99.90
10344;DHT22;5217;43.960;10.954;2022-10-16T02:08:18;20.90;99.90
10344;DHT22;5217;43.960;10.954;2022-10-16T02:10:47;20.80;99.90
10344;DHT22;5217;43.960;10.954;2022-10-16T02:13:22;20.80;99.90
10344;DHT22;5217;43.960;10.954;2022-10-16T02:15:51;20.80;99.90
10344;DHT22;5217;43.960;10.954;2022-10-16T02:18:20;20.80;99.90
10344;DHT22;5217;43.960;10.954;2022-10-16T02:20:51;20.80;99.90
10344;DHT22;5217;43.960;10.954;2022-10-16T02:23:35;20.80;99.90
10344;DHT22;5217;43.960;10.954;2022-10-16T02:26:09;20.80;99.90
10344;DHT22;5217;43.960;10.954;2022-10-16T02:28:46;20.70;99.90
10344;DHT22;5217;43.960;10.954;2022-10-16T02:31:26;20.70;99.90
10344;DHT22;5217;43.960;10.954;2022-10-16T02:33:57;20.80;99.90
10344;DHT22;5217;43.960;10.954;2022-10-16T02:36:27;20.70;99.90
10344;DHT22;5217;43.960;10.954;2022-10-16T02:38:55;20.70;99.90
10344;DHT22;5217;43.960;10.954;2022-10-16T02:41:24;20.70;99.90
10344;DHT22;5217;43.960;10.954;2022-10-16T02:43:53;20.70;99.90
10344;DHT22;5217;43.960;10.954;2022-10-16T02:46:22;20.70;99.90
10344;DHT22;5217;43.960;10.954;2022-10-16T02:48:51;20.60;99.90
10344;DHT22;5217;43.960;10.954;2022-10-16T02:51:19;20.70;99.90
10344;DHT22;5217;43.960;10.954;2022-10-16T02:53:47;20.70;99.90
10344;DHT22;5217;43.960;10.954;2022-10-16T02:56:16;20.60;99.90
10344;DHT22;5217;43.960;10.954;2022-10-16T02:58:49;20.60;99.90
10344;DHT22;5217;43.960;10.954;2022-10-16T03:01:19;20.60;99.90
10344;DHT22;5217;43.960;10.954;2022-10-16T03:03:47;20.60;99.90
10344;DHT22;5217;43.960;10.954;2022-10-16T03:06:16;20.50;99.90
10344;DHT22;5217;43.960;10.954;2022-10-16T03:08:44;20.50;99.90
10344;DHT22;5217;43.960;10.954;2022-10-16T03:11:13;20.50;99.90
10344;DHT22;5217;43.960;10.954;2022-10-16T03:13:42;20.60;99.90
10344;DHT22;5217;43.960;10.954;2022-10-16T03:16:10;20.50;99.90
10344;DHT22;5217;43.960;10.954;2022-10-16T03:18:40;20.50;99.90
10344;DHT22;5217;43.960;10.954;2022-10-16T03:21:09;20.50;99.90
10344;DHT22;5217;43.960;10.954;2022-10-16T03:23:37;20.40;99.90
10344;DHT22;5217;43.960;10.954;2022-10-16T03:26:05;20.50;99.90
10344;DHT22;5217;43.960;10.954;2022-10-16T03:28:34;20.40;99.90
10344;DHT22;5217;43.960;10.954;2022-10-16T03:31:02;20.40;99.90
10344;DHT22;5217;43.960;10.954;2022-10-16T03:33:31;20.50;99.90
10344;DHT22;5217;43.960;10.954;2022-10-16T03:36:00;20.50;99.90
10344;DHT22;5217;43.960;10.954;2022-10-16T03:38:29;20.50;99.90
10344;DHT22;5217;43.960;10.954;2022-10-16T03:40:57;20.40;99.90
10344;DHT22;5217;43.960;10.954;2022-10-16T03:43:26;20.40;99.90
10344;DHT22;5217;43.960;10.954;2022-10-16T03:45:54;20.40;99.90
10344;DHT22;5217;43.960;10.954;2022-10-16T03:48:22;20.40;99.90
10344;DHT22;5217;43.960;10.954;2022-10-16T03:50:51;20.40;99.90
10344;DHT22;5217;43.960;10.954;2022-10-16T03:53:21;20.30;99.90
10344;DHT22;5217;43.960;10.954;2022-10-16T03:55:49;20.40;99.90
10344;DHT22;5217;43.960;10.954;2022-10-16T03:58:17;20.40;99.90
10344;DHT22;5217;43.960;10.954;2022-10-16T04:00:47;20.40;99.90
10344;DHT22;5217;43.960;10.954;2022-10-16T04:03:15;20.40;99.90
10344;DHT22;5217;43.960;10.954;2022-10-16T04:05:45;20.30;99.90
10344;DHT22;5217;43.960;10.954;2022-10-16T04:08:14;20.30;99.90
10344;DHT22;5217;43.960;10.954;2022-10-16T04:10:44;20.30;99.90
10344;DHT22;5217;43.960;10.954;2022-10-16T04:13:13;20.30;99.90
10344;DHT22;5217;43.960;10.954;2022-10-16T04:15:41;20.30;99.90
10344;DHT22;5217;43.960;10.954;2022-10-16T04:18:09;20.30;99.90
10344;DHT22;5217;43.960;10.954;2022-10-16T04:20:38;20.20;99.90
10344;DHT22;5217;43.960;10.954;2022-10-16T04:23:06;20.30;99.90
10344;DHT22;5217;43.960;10.954;2022-10-16T04:25:34;20.20;99.90
10344;DHT22;5217;43.960;10.954;2022-10-16T04:28:04;20.20;99.90
10344;DHT22;5217;43.960;10.954;2022-10-16T04:30:33;20.30;99.90
10344;DHT22;5217;43.960;10.954;2022-10-16T04:33:01;20.20;99.90
10344;DHT22;5217;43.960;10.954;2022-10-16T04:35:30;20.20;99.90
10344;DHT22;5217;43.960;10.954;2022-10-16T04:37:58;20.20;99.90
10344;DHT22;5217;43.960;10.954;2022-10-16T04:40:27;20.20;99.90
10344;DHT22;5217;43.960;10.954;2022-10-16T04:42:55;20.10;99.90
10344;DHT22;5217;43.960;10.954;2022-10-16T04:45:25;20.20;99.90
10344;DHT22;5217;43.960;10.954;2022-10-16T04:47:56;20.20;99.90
10344;DHT22;5217;43.960;10.954;2022-10-16T04:50:25;20.10;99.90
10344;DHT22;5217;43.960;10.954;2022-10-16T04:52:54;20.10;99.90
10344;DHT22;5217;43.960;10.954;2022-10-16T04:55:22;20.10;99.90
10344;DHT22;5217;43.960;10.954;2022-10-16T04:57:50;20.10;99.90
10344;DHT22;5217;43.960;10.954;2022-10-16T05:00:19;20.10;99.90
10344;DHT22;5217;43.960;10.954;2022-10-16T05:02:49;20.10;99.90
10344;DHT22;5217;43.960;10.954;2022-10-16T05:05:18;20.10;99.90
10344;DHT22;5217;43.960;10.954;2022-10-16T05:07:47;20.10;99.90
10344;DHT22;5217;43.960;10.954;2022-10-16T05:10:16;20.10;99.90
10344;DHT22;5217;43.960;10.954;2022-10-16T05:12:45;20.10;99.90
10344;DHT22;5217;43.960;10.954;2022-10-16T05:15:14;20.10;99.90
10344;DHT22;5217;43.960;10.954;2022-10-16T05:17:42;20.10;99.90
10344;DHT22;5217;43.960;10.954;2022-10-16T05:20:12;20.10;99.90
10344;DHT22;5217;43.960;10.954;2022-10-16T05:22:41;20.10;99.90
10344;DHT22;5217;43.960;10.954;2022-10-16T05:25:09;20.10;99.90
10344;DHT22;5217;43.960;10.954;2022-10-16T05:27:37;20.10;99.90
10344;DHT22;5217;43.960;10.954;2022-10-16T05:30:07;20.10;99.90
10344;DHT22;5217;43.960;10.954;2022-10-16T05:32:38;20.10;99.90
10344;DHT22;5217;43.960;10.954;2022-10-16T05:35:07;20.10;99.90
10344;DHT22;5217;43.960;10.954;2022-10-16T05:37:40;20.00;99.90
10344;DHT22;5217;43.960;10.954;2022-10-16T05:40:09;20.00;99.90
10344;DHT22;5217;43.960;10.954;2022-10-16T05:42:37;20.00;99.90
10344;DHT22;5217;43.960;10.954;2022-10-16T05:45:08;20.00;99.90
10344;DHT22;5217;43.960;10.954;2022-10-16T05:47:37;20.00;99.90
10344;DHT22;5217;43.960;10.954;2022-10-16T05:50:06;20.00;99.90
10344;DHT22;5217;43.960;10.954;2022-10-16T05:52:34;20.00;99.90
10344;DHT22;5217;43.960;10.954;2022-10-16T05:55:05;20.00;99.90
10344;DHT22;5217;43.960;10.954;2022-10-16T05:57:33;20.00;99.90
10344;DHT22;5217;43.960;10.954;2022-10-16T06:00:02;20.00;99.90
10344;DHT22;5217;43.960;10.954;2022-10-16T06:02:30;20.00;99.90
10344;DHT22;5217;43.960;10.954;2022-10-16T06:04:59;19.90;99.90
10344;DHT22;5217;43.960;10.954;2022-10-16T06:07:27;20.00;99.90
10344;DHT22;5217;43.960;10.954;2022-10-16T06:09:55;19.90;99.90
10344;DHT22;5217;43.960;10.954;2022-10-16T06:12:26;19.90;99.90
10344;DHT22;5217;43.960;10.954;2022-10-16T06:14:55;19.90;99.90
10344;DHT22;5217;43.960;10.954;2022-10-16T06:17:23;19.90;99.90
10344;DHT22;5217;43.960;10.954;2022-10-16T06:19:52;19.90;99.90
10344;DHT22;5217;43.960;10.954;2022-10-16T06:22:21;20.00;99.90
10344;DHT22;5217;43.960;10.954;2022-10-16T06:24:49;19.90;99.90
10344;DHT22;5217;43.960;10.954;2022-10-16T06:27:17;19.90;99.90
10344;DHT22;5217;43.960;10.954;2022-10-16T06:29:47;19.90;99.90
10344;DHT22;5217;43.960;10.954;2022-10-16T06:32:15;19.90;99.90
10344;DHT22;5217;43.960;10.954;2022-10-16T06:34:44;19.90;99.90
10344;DHT22;5217;43.960;10.954;2022-10-16T06:37:12;19.90;99.90
10344;DHT22;5217;43.960;10.954;2022-10-16T06:39:40;19.90;99.90
10344;DHT22;5217;43.960;10.954;2022-10-16T06:42:09;19.90;99.90
10344;DHT22;5217;43.960;10.954;2022-10-16T06:44:37;20.00;99.90
10344;DHT22;5217;43.960;10.954;2022-10-16T06:47:07;20.00;99.90
10344;DHT22;5217;43.960;10.954;2022-10-16T06:49:36;20.00;99.90
10344;DHT22;5217;43.960;10.954;2022-10-16T06:52:04;19.90;99.90
10344;DHT22;5217;43.960;10.954;2022-10-16T06:54:32;19.90;99.90
10344;DHT22;5217;43.960;10.954;2022-10-16T06:57:08;19.90;99.90
10344;DHT22;5217;43.960;10.954;2022-10-16T06:59:37;19.90;99.90
10344;DHT22;5217;43.960;10.954;2022-10-16T07:02:07;19.90;99.90
10344;DHT22;5217;43.960;10.954;2022-10-16T07:04:36;19.90;99.90
10344;DHT22;5217;43.960;10.954;2022-10-16T07:07:05;19.90;99.90
10344;DHT22;5217;43.960;10.954;2022-10-16T07:09:35;19.90;99.90
10344;DHT22;5217;43.960;10.954;2022-10-16T07:12:04;19.90;99.90
10344;DHT22;5217;43.960;10.954;2022-10-16T07:14:32;19.90;99.90
10344;DHT22;5217;43.960;10.954;2022-10-16T07:17:01;20.00;99.90
10344;DHT22;5217;43.960;10.954;2022-10-16T07:19:31;19.90;99.90
10344;DHT22;5217;43.960;10.954;2022-10-16T07:22:00;20.00;99.90
10344;DHT22;5217;43.960;10.954;2022-10-16T07:24:29;20.00;99.90
10344;DHT22;5217;43.960;10.954;2022-10-16T07:26:58;20.10;99.90
10344;DHT22;5217;43.960;10.954;2022-10-16T07:29:26;20.10;99.90
10344;DHT22;5217;43.960;10.954;2022-10-16T07:31:54;20.10;99.90
10344;DHT22;5217;43.960;10.954;2022-10-16T07:34:23;20.10;99.90
10344;DHT22;5217;43.960;10.954;2022-10-16T07:36:54;20.20;99.90
10344;DHT22;5217;43.960;10.954;2022-10-16T07:39:23;20.30;99.90
10344;DHT22;5217;43.960;10.954;2022-10-16T07:41:51;20.30;99.90
10344;DHT22;5217;43.960;10.954;2022-10-16T07:44:19;20.40;99.90
10344;DHT22;5217;43.960;10.954;2022-10-16T07:46:48;20.30;99.90
10344;DHT22;5217;43.960;10.954;2022-10-16T07:49:16;20.30;99.90
10344;DHT22;5217;43.960;10.954;2022-10-16T07:51:44;20.30;99.90
10344;DHT22;5217;43.960;10.954;2022-10-16T07:54:14;20.30;99.90
10344;DHT22;5217;43.960;10.954;2022-10-16T07:56:43;20.40;99.90
10344;DHT22;5217;43.960;10.954;2022-10-16T07:59:11;20.40;99.90
10344;DHT22;5217;43.960;10.954;2022-10-16T08:01:40;20.50;99.90
10344;DHT22;5217;43.960;10.954;2022-10-16T08:04:09;20.40;99.90
10344;DHT22;5217;43.960;10.954;2022-10-16T08:06:39;20.40;99.90
10344;DHT22;5217;43.960;10.954;2022-10-16T08:09:08;20.50;99.90
10344;DHT22;5217;43.960;10.954;2022-10-16T08:11:38;20.50;99.90
10344;DHT22;5217;43.960;10.954;2022-10-16T08:14:06;20.50;99.90
10344;DHT22;5217;43.960;10.954;2022-10-16T08:16:35;20.60;99.90
10344;DHT22;5217;43.960;10.954;2022-10-16T08:19:03;20.60;99.90
10344;DHT22;5217;43.960;10.954;2022-10-16T08:21:32;20.60;99.90
10344;DHT22;5217;43.960;10.954;2022-10-16T08:24:00;20.70;99.90
10344;DHT22;5217;43.960;10.954;2022-10-16T08:26:28;20.70;99.90
10344;DHT22;5217;43.960;10.954;2022-10-16T08:28:58;20.80;99.90
10344;DHT22;5217;43.960;10.954;2022-10-16T08:31:27;20.80;99.90
10344;DHT22;5217;43.960;10.954;2022-10-16T08:33:55;20.80;99.90
10344;DHT22;5217;43.960;10.954;2022-10-16T08:36:23;20.80;99.90
10344;DHT22;5217;43.960;10.954;2022-10-16T08:38:52;20.90;99.90
10344;DHT22;5217;43.960;10.954;2022-10-16T08:41:34;20.90;99.90
10344;DHT22;5217;43.960;10.954;2022-10-16T08:47:24;20.90;99.90
10344;DHT22;5217;43.960;10.954;2022-10-16T08:49:56;21.00;99.90
10344;DHT22;5217;43.960;10.954;2022-10-16T08:52:29;21.00;99.90
10344;DHT22;5217;43.960;10.954;2022-10-16T08:54:58;20.90;99.90
10344;DHT22;5217;43.960;10.954;2022-10-16T08:57:26;21.00;99.90
10344;DHT22;5217;43.960;10.954;2022-10-16T08:59:59;21.10;99.90
10344;DHT22;5217;43.960;10.954;2022-10-16T09:02:33;21.10;99.90
10344;DHT22;5217;43.960;10.954;2022-10-16T09:05:22;21.10;99.90
10344;DHT22;5217;43.960;10.954;2022-10-16T09:08:00;21.10;99.90
10344;DHT22;5217;43.960;10.954;2022-10-16T09:10:43;21.20;99.90
10344;DHT22;5217;43.960;10.954;2022-10-16T09:13:20;21.20;99.90
10344;DHT22;5217;43.960;10.954;2022-10-16T09:15:56;21.20;99.90
10344;DHT22;5217;43.960;10.954;2022-10-16T09:21:55;21.30;99.90
10344;DHT22;5217;43.960;10.954;2022-10-16T09:24:26;21.30;99.90
10344;DHT22;5217;43.960;10.954;2022-10-16T09:26:55;21.40;99.90
10344;DHT22;5217;43.960;10.954;2022-10-16T09:29:24;21.40;99.90
10344;DHT22;5217;43.960;10.954;2022-10-16T09:31:53;21.40;99.90
10344;DHT22;5217;43.960;10.954;2022-10-16T09:34:30;21.40;99.90
10344;DHT22;5217;43.960;10.954;2022-10-16T09:37:03;21.40;99.90
10344;DHT22;5217;43.960;10.954;2022-10-16T09:39:44;21.50;99.90
10344;DHT22;5217;43.960;10.954;2022-10-16T09:42:15;21.60;99.90
10344;DHT22;5217;43.960;10.954;2022-10-16T09:44:48;21.60;99.90
10344;DHT22;5217;43.960;10.954;2022-10-16T09:47:20;21.70;99.90
10344;DHT22;5217;43.960;10.954;2022-10-16T09:49:53;21.70;99.90
10344;DHT22;5217;43.960;10.954;2022-10-16T09:52:24;21.70;99.90
10344;DHT22;5217;43.960;10.954;2022-10-16T09:54:54;21.80;99.90
10344;DHT22;5217;43.960;10.954;2022-10-16T09:57:23;21.80;99.90
10344;DHT22;5217;43.960;10.954;2022-10-16T09:59:53;21.90;99.90
10344;DHT22;5217;43.960;10.954;2022-10-16T10:02:28;21.90;99.90
10344;DHT22;5217;43.960;10.954;2022-10-16T10:04:58;21.90;99.90
10344;DHT22;5217;43.960;10.954;2022-10-16T10:07:31;22.00;99.90
10344;DHT22;5217;43.960;10.954;2022-10-16T10:10:02;22.10;99.90
10344;DHT22;5217;43.960;10.954;2022-10-16T10:12:32;22.10;99.90
10344;DHT22;5217;43.960;10.954;2022-10-16T10:15:07;22.20;99.90
10344;DHT22;5217;43.960;10.954;2022-10-16T10:17:46;22.20;99.90
10344;DHT22;5217;43.960;10.954;2022-10-16T10:20:24;22.20;99.90
10344;DHT22;5217;43.960;10.954;2022-10-16T10:22:54;22.30;99.90
10344;DHT22;5217;43.960;10.954;2022-10-16T10:25:46;22.30;99.90
10344;DHT22;5217;43.960;10.954;2022-10-16T10:28:43;22.40;99.90
10344;DHT22;5217;43.960;10.954;2022-10-16T10:31:19;22.50;99.90
10344;DHT22;5217;43.960;10.954;2022-10-16T10:33:55;22.50;99.90
10344;DHT22;5217;43.960;10.954;2022-10-16T10:40:22;22.70;99.90
10344;DHT22;5217;43.960;10.954;2022-10-16T10:42:55;22.70;99.90
10344;DHT22;5217;43.960;10.954;2022-10-16T10:45:27;22.80;99.90
10344;DHT22;5217;43.960;10.954;2022-10-16T10:48:06;22.80;99.90
10344;DHT22;5217;43.960;10.954;2022-10-16T10:50:43;22.90;99.90
10344;DHT22;5217;43.960;10.954;2022-10-16T10:53:21;22.90;99.90
10344;DHT22;5217;43.960;10.954;2022-10-16T10:56:02;23.00;99.90
10344;DHT22;5217;43.960;10.954;2022-10-16T10:58:47;23.00;99.90
10344;DHT22;5217;43.960;10.954;2022-10-16T11:01:23;23.00;99.90
10344;DHT22;5217;43.960;10.954;2022-10-16T11:04:12;23.10;99.90
10344;DHT22;5217;43.960;10.954;2022-10-16T11:06:45;23.10;99.90
10344;DHT22;5217;43.960;10.954;2022-10-16T11:09:17;23.20;99.90
10344;DHT22;5217;43.960;10.954;2022-10-16T11:11:54;23.20;99.90
10344;DHT22;5217;43.960;10.954;2022-10-16T11:14:29;23.30;99.90
10344;DHT22;5217;43.960;10.954;2022-10-16T11:17:04;23.30;99.90
10344;DHT22;5217;43.960;10.954;2022-10-16T11:19:39;23.40;99.90
10344;DHT22;5217;43.960;10.954;2022-10-16T11:22:15;23.40;99.90
10344;DHT22;5217;43.960;10.954;2022-10-16T11:24:49;23.50;99.90
10344;DHT22;5217;43.960;10.954;2022-10-16T11:27:26;23.60;99.90
10344;DHT22;5217;43.960;10.954;2022-10-16T11:29:58;23.70;99.90
10344;DHT22;5217;43.960;10.954;2022-10-16T11:32:32;23.80;99.90
10344;DHT22;5217;43.960;10.954;2022-10-16T11:35:08;23.80;99.90
10344;DHT22;5217;43.960;10.954;2022-10-16T11:37:44;23.90;99.90
10344;DHT22;5217;43.960;10.954;2022-10-16T11:40:23;24.10;99.90
10344;DHT22;5217;43.960;10.954;2022-10-16T11:43:00;24.20;99.90
10344;DHT22;5217;43.960;10.954;2022-10-16T11:45:36;24.30;99.90
10344;DHT22;5217;43.960;10.954;2022-10-16T11:48:15;24.40;99.90
10344;DHT22;5217;43.960;10.954;2022-10-16T11:50:51;24.50;99.90
10344;DHT22;5217;43.960;10.954;2022-10-16T11:53:29;24.70;99.90
10344;DHT22;5217;43.960;10.954;2022-10-16T11:56:03;24.70;99.90
10344;DHT22;5217;43.960;10.954;2022-10-16T11:58:39;24.80;99.90
10344;DHT22;5217;43.960;10.954;2022-10-16T12:01:17;24.90;99.90
10344;DHT22;5217;43.960;10.954;2022-10-16T12:03:56;25.00;99.90
10344;DHT22;5217;43.960;10.954;2022-10-16T12:06:33;25.10;99.90
10344;DHT22;5217;43.960;10.954;2022-10-16T12:09:04;25.20;99.90
10344;DHT22;5217;43.960;10.954;2022-10-16T12:11:59;25.30;99.90
10344;DHT22;5217;43.960;10.954;2022-10-16T12:17:56;25.50;99.90
10344;DHT22;5217;43.960;10.954;2022-10-16T12:20:27;25.60;98.40
10344;DHT22;5217;43.960;10.954;2022-10-16T12:23:01;25.70;98.90
10344;DHT22;5217;43.960;10.954;2022-10-16T12:25:32;25.80;99.70
10344;DHT22;5217;43.960;10.954;2022-10-16T12:28:04;25.90;99.00
10344;DHT22;5217;43.960;10.954;2022-10-16T12:30:36;25.90;99.50
10344;DHT22;5217;43.960;10.954;2022-10-16T12:33:06;25.90;99.60
10344;DHT22;5217;43.960;10.954;2022-10-16T12:35:45;26.00;99.40
10344;DHT22;5217;43.960;10.954;2022-10-16T12:38:17;25.90;99.50
10344;DHT22;5217;43.960;10.954;2022-10-16T12:40:56;26.00;99.60
10344;DHT22;5217;43.960;10.954;2022-10-16T12:43:38;26.00;99.30
10344;DHT22;5217;43.960;10.954;2022-10-16T12:46:35;26.10;99.60
10344;DHT22;5217;43.960;10.954;2022-10-16T12:49:37;26.00;99.10
10344;DHT22;5217;43.960;10.954;2022-10-16T12:52:27;26.10;99.00
10344;DHT22;5217;43.960;10.954;2022-10-16T12:54:57;26.10;98.70
10344;DHT22;5217;43.960;10.954;2022-10-16T12:57:41;26.20;98.70
10344;DHT22;5217;43.960;10.954;2022-10-16T13:00:22;26.20;98.60
10344;DHT22;5217;43.960;10.954;2022-10-16T13:06:13;26.30;99.00
10344;DHT22;5217;43.960;10.954;2022-10-16T13:08:53;26.30;99.10
10344;DHT22;5217;43.960;10.954;2022-10-16T13:11:41;26.30;99.00
10344;DHT22;5217;43.960;10.954;2022-10-16T13:14:28;26.40;98.70
10344;DHT22;5217;43.960;10.954;2022-10-16T13:17:06;26.40;98.10
10344;DHT22;5217;43.960;10.954;2022-10-16T13:19:44;26.40;98.10
10344;DHT22;5217;43.960;10.954;2022-10-16T13:22:24;26.40;97.70
10344;DHT22;5217;43.960;10.954;2022-10-16T13:25:08;26.40;97.90
10344;DHT22;5217;43.960;10.954;2022-10-16T13:27:45;26.40;98.20
10344;DHT22;5217;43.960;10.954;2022-10-16T13:30:18;26.40;98.40
10344;DHT22;5217;43.960;10.954;2022-10-16T13:33:00;26.40;98.50
10344;DHT22;5217;43.960;10.954;2022-10-16T13:35:31;26.50;98.70
10344;DHT22;5217;43.960;10.954;2022-10-16T13:38:15;26.50;98.90
10344;DHT22;5217;43.960;10.954;2022-10-16T13:40:50;26.50;98.90
10344;DHT22;5217;43.960;10.954;2022-10-16T13:43:20;26.50;98.90
10344;DHT22;5217;43.960;10.954;2022-10-16T13:45:59;26.40;98.60
10344;DHT22;5217;43.960;10.954;2022-10-16T13:48:29;26.40;98.60
10344;DHT22;5217;43.960;10.954;2022-10-16T13:51:00;26.40;98.90
10344;DHT22;5217;43.960;10.954;2022-10-16T13:53:32;26.30;98.40
10344;DHT22;5217;43.960;10.954;2022-10-16T13:56:04;26.30;98.10
10344;DHT22;5217;43.960;10.954;2022-10-16T13:58:33;26.20;97.40
10344;DHT22;5217;43.960;10.954;2022-10-16T14:01:04;26.10;96.50
10344;DHT22;5217;43.960;10.954;2022-10-16T14:03:35;26.10;96.40
10344;DHT22;5217;43.960;10.954;2022-10-16T14:06:06;26.00;96.60
10344;DHT22;5217;43.960;10.954;2022-10-16T14:08:44;26.00;96.80
10344;DHT22;5217;43.960;10.954;2022-10-16T14:11:20;25.90;97.00
10344;DHT22;5217;43.960;10.954;2022-10-16T14:13:51;25.90;97.50
10344;DHT22;5217;43.960;10.954;2022-10-16T14:16:22;25.80;98.00
10344;DHT22;5217;43.960;10.954;2022-10-16T14:18:57;25.80;98.40
10344;DHT22;5217;43.960;10.954;2022-10-16T14:21:26;25.80;98.50
10344;DHT22;5217;43.960;10.954;2022-10-16T14:23:56;25.80;98.60
10344;DHT22;5217;43.960;10.954;2022-10-16T14:26:26;25.70;98.60
10344;DHT22;5217;43.960;10.954;2022-10-16T14:29:09;25.70;99.00
10344;DHT22;5217;43.960;10.954;2022-10-16T14:31:39;25.70;99.50
10344;DHT22;5217;43.960;10.954;2022-10-16T14:34:27;25.70;99.60
10344;DHT22;5217;43.960;10.954;2022-10-16T14:36:59;25.60;99.90
10344;DHT22;5217;43.960;10.954;2022-10-16T14:39:30;25.60;99.90
10344;DHT22;5217;43.960;10.954;2022-10-16T14:41:59;25.60;99.90
10344;DHT22;5217;43.960;10.954;2022-10-16T14:44:31;25.60;99.90
10344;DHT22;5217;43.960;10.954;2022-10-16T14:47:08;25.50;99.90
10344;DHT22;5217;43.960;10.954;2022-10-16T14:49:37;25.50;99.90
10344;DHT22;5217;43.960;10.954;2022-10-16T14:52:10;25.50;99.90
10344;DHT22;5217;43.960;10.954;2022-10-16T14:54:40;25.50;99.90
10344;DHT22;5217;43.960;10.954;2022-10-16T14:57:16;25.50;99.90
10344;DHT22;5217;43.960;10.954;2022-10-16T14:59:45;25.40;99.90
10344;DHT22;5217;43.960;10.954;2022-10-16T15:02:20;25.40;99.90
10344;DHT22;5217;43.960;10.954;2022-10-16T15:04:51;25.40;99.90
10344;DHT22;5217;43.960;10.954;2022-10-16T15:07:19;25.30;99.90
10344;DHT22;5217;43.960;10.954;2022-10-16T15:09:49;25.30;99.90
10344;DHT22;5217;43.960;10.954;2022-10-16T15:12:18;25.30;99.90
10344;DHT22;5217;43.960;10.954;2022-10-16T15:14:46;25.20;99.90
10344;DHT22;5217;43.960;10.954;2022-10-16T15:17:15;25.20;99.90
10344;DHT22;5217;43.960;10.954;2022-10-16T15:19:47;25.20;99.90
10344;DHT22;5217;43.960;10.954;2022-10-16T15:22:16;25.10;99.90
10344;DHT22;5217;43.960;10.954;2022-10-16T15:24:45;25.10;99.90
10344;DHT22;5217;43.960;10.954;2022-10-16T15:27:15;25.10;99.90
10344;DHT22;5217;43.960;10.954;2022-10-16T15:29:43;25.10;99.90
10344;DHT22;5217;43.960;10.954;2022-10-16T15:32:11;25.10;99.90
10344;DHT22;5217;43.960;10.954;2022-10-16T15:34:40;25.10;99.90
10344;DHT22;5217;43.960;10.954;2022-10-16T15:37:09;25.00;99.90
10344;DHT22;5217;43.960;10.954;2022-10-16T15:39:38;25.00;99.90
10344;DHT22;5217;43.960;10.954;2022-10-16T15:42:07;25.00;99.90
10344;DHT22;5217;43.960;10.954;2022-10-16T15:44:37;25.00;99.90
10344;DHT22;5217;43.960;10.954;2022-10-16T15:47:05;24.90;99.90
10344;DHT22;5217;43.960;10.954;2022-10-16T15:49:34;24.90;99.90
10344;DHT22;5217;43.960;10.954;2022-10-16T15:52:03;24.90;99.90
10344;DHT22;5217;43.960;10.954;2022-10-16T15:54:32;24.80;99.90
10344;DHT22;5217;43.960;10.954;2022-10-16T15:57:00;24.80;99.90
10344;DHT22;5217;43.960;10.954;2022-10-16T15:59:28;24.80;99.90
10344;DHT22;5217;43.960;10.954;2022-10-16T16:01:58;24.80;99.90
10344;DHT22;5217;43.960;10.954;2022-10-16T16:04:29;24.80;99.90
10344;DHT22;5217;43.960;10.954;2022-10-16T16:07:10;24.70;99.90
10344;DHT22;5217;43.960;10.954;2022-10-16T16:09:38;24.70;99.90
10344;DHT22;5217;43.960;10.954;2022-10-16T16:12:07;24.70;99.90
10344;DHT22;5217;43.960;10.954;2022-10-16T16:14:35;24.70;99.90
10344;DHT22;5217;43.960;10.954;2022-10-16T16:17:06;24.60;99.90